Wednesday, June 20, 2018, 3:50 AM EDT
Back to Local

KELZ, Wellsville Municipal Airport

Location: Wellsville, NY, United States Lat: 42.1
Local Time: 3:50 AM EDT ( 7:50 GMT) Lon: -78
Time Zone: US/Eastern Elev: 2122 ft

Show me the last for .
Show Decoded

2018-06-20 02:56 METAR KELZ 200656Z AUTO 14003KT 10SM BKN110 15/12 A2997 RMK AO2 SLP139 T01500117
                 =
2018-06-20 01:56 METAR KELZ 200556Z AUTO 12003KT 10SM OVC120 14/13 A2999 RMK AO2 SLP145 T01440128
                 10200 20144 58007 =
2018-06-20 00:56 METAR KELZ 200456Z AUTO 07004KT 10SM CLR 16/12 A3000 RMK AO2 SLP151 T01560117
                 402390156 =
2018-06-19 23:56 METAR KELZ 200356Z AUTO 03003KT 10SM CLR 17/11 A3000 RMK AO2 SLP151 T01670106 =
2018-06-19 22:56 METAR KELZ 200256Z AUTO 06003KT 10SM CLR 17/09 A3001 RMK AO2 SLP152 T01720094
                 50003 =
2018-06-19 21:56 METAR KELZ 200156Z AUTO 00000KT 10SM CLR 18/11 A3002 RMK AO2 SLP156 T01780106 =
2018-06-19 20:56 METAR KELZ 200056Z AUTO 06003KT 10SM CLR 18/11 A2999 RMK AO2 SLP147 T01830106 =
2018-06-19 19:56 METAR KELZ 192356Z AUTO 36004KT 10SM CLR 20/12 A3000 RMK AO2 SLP149 T02000117
                 10239 20200 50000 =
2018-06-19 18:56 METAR KELZ 192256Z AUTO 33008KT 10SM CLR 22/12 A3001 RMK AO2 SLP151 T02220122 =
2018-06-19 17:56 METAR KELZ 192156Z AUTO 33005KT 10SM CLR 23/12 A3000 RMK AO2 SLP148 T02280117 =
2018-06-19 16:56 METAR KELZ 192056Z AUTO 35006KT 10SM CLR 23/11 A3000 RMK AO2 SLP145 T02330111
                 58008 =
2018-06-19 15:56 METAR KELZ 191956Z AUTO 32008KT 10SM CLR 23/13 A3001 RMK AO2 SLP148 T02330128 =
2018-06-19 14:56 METAR KELZ 191856Z AUTO 01008KT 10SM CLR 23/12 A3002 RMK AO2 SLP152 T02330122 =
2018-06-19 13:56 METAR KELZ 191756Z AUTO 31010KT 10SM CLR 23/14 A3002 RMK AO2 SLP152 T02280144
                 10228 20167 56005 =
2018-06-19 12:56 METAR KELZ 191656Z AUTO 33008KT 10SM FEW028 22/14 A3002 RMK AO2 SLP153 T02220144
                 =
2018-06-19 11:56 METAR KELZ 191556Z AUTO 01007KT 10SM FEW023 21/14 A3003 RMK AO2 SLP158 T02060144
                 =
2018-06-19 10:56 METAR KELZ 191456Z AUTO 04006KT 10SM SCT018 SCT024 20/15 A3004 RMK AO2 SLP160
                 T02000150 50003 =
2018-06-19 10:43 METAR KELZ 191443Z AUTO 35007KT 10SM SCT018 19/14 A3004 RMK AO2 T01890144 =
2018-06-19 10:23 METAR KELZ 191423Z AUTO 02007KT 10SM SCT014 BKN021 19/14 A3004 RMK AO2 T01890144
                 =
2018-06-19 10:13 METAR KELZ 191413Z AUTO VRB06G14KT 10SM BKN014 BKN021 18/14 A3004 RMK AO2
                 T01780144 =
2018-06-19 09:56 METAR KELZ 191356Z AUTO 02009KT 10SM SCT013 BKN020 18/14 A3004 RMK AO2 SLP162
                 T01830144 =
2018-06-19 09:21 METAR KELZ 191321Z AUTO 03008KT 350V050 10SM SCT014 BKN020 18/15 A3004 RMK AO2
                 T01830150 =
2018-06-19 08:56 METAR KELZ 191256Z AUTO 04008KT 10SM BKN013 18/15 A3003 RMK AO2 SLP157 T01780150
                 =
2018-06-19 08:52 METAR KELZ 191252Z AUTO 02008KT 10SM BKN013 17/14 A3003 RMK AO2 =
2018-06-19 08:30 METAR KELZ 191230Z AUTO 02008KT 10SM SCT010 17/15 A3003 RMK AO2 T01720150 =
2018-06-19 07:56 METAR KELZ 191156Z AUTO 02007KT 10SM OVC010 17/15 A3002 RMK AO2 CIG 007V013
                 SLP153 60014 70069 T01670150 10206 20161 51014 =
2018-06-19 07:35 METAR KELZ 191135Z AUTO 01008KT 10SM SCT004 OVC010 17/15 A3002 RMK AO2 CIG
                 007V011 T01670150 =
2018-06-19 07:26 METAR KELZ 191126Z AUTO 02008KT 10SM OVC004 17/16 A3001 RMK AO2 T01670156 =
2018-06-19 06:56 METAR KELZ 191056Z AUTO VRB04KT 8SM OVC002 17/17 A3000 RMK AO2 RAE10 SLP146
                 P0000 T01720167 =
2018-06-19 06:11 METAR KELZ 191011Z AUTO VRB03KT 5SM BR OVC004 17/17 A2998 RMK AO2 RAE10 P0000
                 T01720167 =
2018-06-19 05:56 METAR KELZ 190956Z AUTO 01006KT 2SM -RA BR OVC002 17/17 A2998 RMK AO2 SLP137
                 P0003 T01720172 =
2018-06-19 05:20 METAR KELZ 190920Z AUTO 33007KT 1 3/4SM -RA BR OVC002 19/19 A2996 RMK AO2 P0001
                 T01890189 =
2018-06-19 04:56 METAR KELZ 190856Z AUTO VRB06KT 2 1/2SM -RA BR OVC002 19/19 A2995 RMK AO2 RAB41
                 SLP124 P0000 60011 T01940189 53008 =
2018-06-19 04:38 METAR KELZ 190838Z AUTO 34007G15KT 2 1/2SM BR OVC003 19/19 A2994 RMK AO2
                 T01940189 =
2018-06-19 04:09 METAR KELZ 190809Z AUTO 33009KT 10SM BKN004 OVC009 19/19 A2993 RMK AO2 T01940189
                 =
2018-06-19 03:56 METAR KELZ 190756Z AUTO 33009KT 9SM OVC005 20/19 A2993 RMK AO2 RAE0659 CIG
                 003V008 SLP119 P0000 T02000194 =

Support USWX by starting your Amazon purchase here.